Time;durP1;ratioP1;P1;durP2;ratioP2;P2;SDS_P1;SDS_P2;PMS_P1;PMS_P2;Temp;Humidity;BMP_temperature;BMP_pressure;BME280_temperature;BME280_humidity;BME280_pressure;Samples;Min_cycle;Max_cycle;Signal;HPM_P1;HPM_P2
2024/01/31 00:01:18;;;;;;;8.02;2.65;;;;;;;10.19;61.30;103432.47;4998380;28;97176;-69
2024/01/31 00:03:45;;;;;;;6.47;2.05;;;;;;;10.21;61.11;103431.56;4997751;28;97780;-69
2024/01/31 00:06:13;;;;;;;9.52;2.25;;;;;;;10.19;61.25;103434.28;4996591;28;98363;-69
2024/01/31 00:08:40;;;;;;;4.68;1.90;;;;;;;10.19;61.32;103439.63;5002177;28;97163;-69
2024/01/31 00:11:08;;;;;;;7.30;2.80;;;;;;;10.16;61.18;103434.34;5008870;28;96874;-69
2024/01/31 00:13:35;;;;;;;5.65;2.25;;;;;;;10.15;61.08;103438.84;4992382;28;100500;-69
2024/01/31 00:16:02;;;;;;;8.55;3.03;;;;;;;10.14;61.16;103447.81;4995173;28;97535;-69
2024/01/31 00:18:29;;;;;;;9.32;2.38;;;;;;;10.15;60.92;103440.66;4994485;28;97981;-69
2024/01/31 00:20:56;;;;;;;12.35;2.80;;;;;;;10.14;61.26;103453.19;4988746;28;97906;-69
2024/01/31 00:23:23;;;;;;;7.13;2.53;;;;;;;10.13;61.37;103451.44;4995904;28;97414;-69
2024/01/31 00:25:50;;;;;;;6.80;2.20;;;;;;;10.15;61.12;103459.44;4997174;28;98149;-69
2024/01/31 00:28:17;;;;;;;5.55;2.25;;;;;;;10.14;61.16;103463.06;4997256;28;97227;-70
2024/01/31 00:30:45;;;;;;;4.15;2.30;;;;;;;10.13;60.99;103472.03;4998221;28;97450;-69
2024/01/31 00:33:11;;;;;;;4.60;2.25;;;;;;;10.12;61.20;103484.59;4997091;28;100566;-69
2024/01/31 00:35:38;;;;;;;4.43;2.22;;;;;;;10.10;61.19;103489.13;5009610;28;100039;-69
2024/01/31 00:38:04;;;;;;;8.95;2.47;;;;;;;10.11;61.05;103487.31;5003056;28;97173;-69
2024/01/31 00:40:32;;;;;;;4.70;2.17;;;;;;;10.10;61.24;103493.59;5003166;28;97255;-69
2024/01/31 00:42:58;;;;;;;9.65;2.45;;;;;;;10.08;60.96;103496.31;5005244;28;97540;-69
2024/01/31 00:45:25;;;;;;;4.60;2.05;;;;;;;10.08;60.83;103490.06;5006429;28;98065;-69
2024/01/31 00:47:52;;;;;;;6.75;1.83;;;;;;;10.08;61.25;103482.91;4996582;28;97353;-69
2024/01/31 00:50:19;;;;;;;11.18;2.85;;;;;;;10.10;61.30;103485.53;5007273;27;97512;-69
2024/01/31 00:52:46;;;;;;;6.40;2.67;;;;;;;10.11;61.00;103485.50;5012511;28;97768;-69
2024/01/31 00:55:14;;;;;;;5.05;2.42;;;;;;;10.12;61.26;103483.69;5010180;28;97577;-69
2024/01/31 00:57:41;;;;;;;4.45;2.10;;;;;;;10.11;60.88;103476.56;4998579;28;97320;-69
2024/01/31 01:00:09;;;;;;;6.63;1.88;;;;;;;10.10;61.21;103494.47;4987933;28;97533;-69
2024/01/31 01:02:36;;;;;;;9.48;2.63;;;;;;;10.08;61.02;103490.97;5002054;27;97514;-69
2024/01/31 01:05:03;;;;;;;6.95;2.60;;;;;;;10.08;60.89;103495.44;4989972;28;97617;-69
2024/01/31 01:07:30;;;;;;;9.00;2.30;;;;;;;10.08;61.03;103495.44;4995408;28;97313;-69
2024/01/31 01:09:56;;;;;;;6.95;1.98;;;;;;;10.08;61.32;103499.00;5000227;28;97266;-69
2024/01/31 01:12:23;;;;;;;10.63;2.65;;;;;;;10.07;61.07;103493.69;5007561;27;97513;-69
2024/01/31 01:14:50;;;;;;;9.45;2.55;;;;;;;10.09;61.08;103497.22;5009772;28;97872;-69
2024/01/31 01:17:21;;;;;;;8.38;2.40;;;;;;;10.10;61.06;103490.91;4994503;28;97167;-69
2024/01/31 01:19:48;;;;;;;6.82;2.50;;;;;;;10.12;61.12;103489.94;5010685;28;97219;-69
2024/01/31 01:22:15;;;;;;;5.05;2.05;;;;;;;10.13;61.02;103489.03;5000485;28;97739;-69
2024/01/31 01:24:41;;;;;;;7.85;2.20;;;;;;;10.16;61.03;103485.38;4992662;28;97460;-69
2024/01/31 01:27:09;;;;;;;5.47;2.30;;;;;;;10.18;60.93;103480.84;4990979;28;97627;-69
2024/01/31 01:29:36;;;;;;;8.70;2.15;;;;;;;10.20;60.92;103481.72;4999761;28;97464;-69
2024/01/31 01:32:03;;;;;;;8.85;2.60;;;;;;;10.24;61.04;103482.50;5035289;27;98407;-69
2024/01/31 01:34:30;;;;;;;6.63;2.42;;;;;;;10.26;60.99;103486.03;5013576;28;97566;-69
2024/01/31 01:36:57;;;;;;;4.57;2.30;;;;;;;10.27;61.28;103485.13;4995614;28;96873;-69
2024/01/31 01:39:23;;;;;;;8.20;2.17;;;;;;;10.28;60.90;103482.38;5003350;28;97316;-69
2024/01/31 01:41:50;;;;;;;9.63;2.00;;;;;;;10.29;61.13;103480.59;4985224;28;100579;-69
2024/01/31 01:44:17;;;;;;;8.27;1.98;;;;;;;10.29;61.04;103485.94;4999322;28;97927;-69
2024/01/31 01:46:45;;;;;;;6.13;1.83;;;;;;;10.26;60.94;103484.25;5000945;28;97567;-69
2024/01/31 01:49:12;;;;;;;7.25;2.30;;;;;;;10.24;60.98;103480.72;5007189;28;96864;-69
2024/01/31 01:51:40;;;;;;;3.25;1.70;;;;;;;10.22;61.00;103487.06;4998425;28;97617;-69
2024/01/31 01:54:12;;;;;;;5.70;2.08;;;;;;;10.18;60.82;103481.72;4987015;27;98398;-69
2024/01/31 01:56:45;;;;;;;3.10;1.50;;;;;;;10.15;60.94;103489.00;4985465;28;97626;-69
2024/01/31 01:59:12;;;;;;;3.70;1.83;;;;;;;10.13;60.72;103489.03;4992701;28;97049;-70
2024/01/31 02:01:41;;;;;;;7.07;2.35;;;;;;;10.10;60.97;103489.13;4994054;28;97546;-69
2024/01/31 02:04:08;;;;;;;10.45;1.70;;;;;;;10.06;61.04;103492.81;4990237;28;98059;-70
2024/01/31 02:06:36;;;;;;;3.65;1.50;;;;;;;10.04;61.08;103491.09;4988518;28;97318;-69
2024/01/31 02:09:03;;;;;;;4.30;1.75;;;;;;;10.03;61.07;103486.63;4993178;27;97016;-69
2024/01/31 02:11:34;;;;;;;7.60;1.80;;;;;;;10.04;61.17;103477.66;4990740;28;98455;-69
2024/01/31 02:14:01;;;;;;;6.78;1.60;;;;;;;10.06;60.95;103475.81;5001008;28;97557;-69
2024/01/31 02:16:28;;;;;;;7.82;1.90;;;;;;;10.07;61.13;103474.88;4990363;28;97163;-69
2024/01/31 02:18:55;;;;;;;4.22;1.80;;;;;;;10.06;60.88;103482.06;4992989;27;97058;-69
2024/01/31 02:21:26;;;;;;;5.03;2.10;;;;;;;10.07;61.00;103483.81;4993869;28;97817;-69
2024/01/31 02:23:53;;;;;;;6.82;2.15;;;;;;;10.04;61.01;103488.41;4996459;28;97510;-69
2024/01/31 02:26:20;;;;;;;7.43;2.17;;;;;;;10.02;60.75;103480.38;4993677;28;97742;-69
2024/01/31 02:28:46;;;;;;;8.85;1.92;;;;;;;10.02;61.06;103485.75;4994681;28;97489;-69
2024/01/31 02:31:13;;;;;;;4.32;1.77;;;;;;;10.02;60.72;103480.38;5002825;28;98235;-69
2024/01/31 02:33:40;;;;;;;7.88;2.30;;;;;;;10.03;60.76;103481.25;4992943;28;97908;-69
2024/01/31 02:36:06;;;;;;;5.47;2.00;;;;;;;10.05;60.95;103483.00;4993308;27;97095;-69
2024/01/31 02:38:33;;;;;;;4.93;1.73;;;;;;;10.06;60.95;103482.06;5007919;28;96883;-69
2024/01/31 02:41:00;;;;;;;4.05;1.58;;;;;;;10.08;60.97;103479.34;5002434;28;97668;-69
2024/01/31 02:43:26;;;;;;;5.50;1.77;;;;;;;10.04;60.67;103483.91;4996723;28;98685;-69
2024/01/31 02:45:53;;;;;;;9.63;2.00;;;;;;;10.01;60.94;103489.34;4998795;28;97353;-69
2024/01/31 02:48:20;;;;;;;5.50;2.30;;;;;;;9.99;61.00;103480.47;5002745;28;96949;-71
2024/01/31 02:50:46;;;;;;;6.15;1.90;;;;;;;10.00;60.79;103476.84;4994909;28;97504;-70
2024/01/31 02:53:13;;;;;;;7.05;2.53;;;;;;;10.01;61.01;103467.00;4991928;28;100205;-69
2024/01/31 02:55:40;;;;;;;3.92;1.95;;;;;;;10.05;60.88;103474.94;5004635;28;97954;-69
2024/01/31 02:58:07;;;;;;;6.00;1.80;;;;;;;10.09;61.01;103470.34;5011529;28;96916;-69
2024/01/31 03:00:34;;;;;;;5.95;1.90;;;;;;;10.13;60.98;103458.63;5002537;28;100242;-69
2024/01/31 03:03:00;;;;;;;7.70;2.08;;;;;;;10.18;61.05;103465.63;5010355;28;97558;-69
2024/01/31 03:05:27;;;;;;;7.57;2.38;;;;;;;10.22;60.86;103450.34;5002804;28;97458;-70
2024/01/31 03:07:54;;;;;;;5.03;2.35;;;;;;;10.24;60.93;103448.47;4996348;28;97608;-69
2024/01/31 03:10:21;;;;;;;5.40;1.95;;;;;;;10.25;60.73;103444.00;5002532;28;97613;-69
2024/01/31 03:12:47;;;;;;;6.45;2.05;;;;;;;10.27;60.87;103447.50;5002733;28;98006;-69
2024/01/31 03:15:14;;;;;;;7.28;1.90;;;;;;;10.28;60.93;103447.47;4989929;28;100460;-69
2024/01/31 03:17:41;;;;;;;9.88;2.15;;;;;;;10.29;60.92;103441.19;5011497;28;97673;-69
2024/01/31 03:20:09;;;;;;;9.18;2.17;;;;;;;10.30;61.03;103436.69;5013454;28;97826;-69
2024/01/31 03:22:36;;;;;;;6.82;2.00;;;;;;;10.30;60.65;103434.88;5004679;28;97475;-69
2024/01/31 03:25:04;;;;;;;5.05;1.92;;;;;;;10.33;61.00;103439.28;5002403;28;97170;-69
2024/01/31 03:27:31;;;;;;;5.03;2.17;;;;;;;10.33;60.80;103439.28;5004310;28;97451;-69
2024/01/31 03:30:02;;;;;;;5.00;1.60;;;;;;;10.34;60.70;103436.56;5004503;28;97589;-69
2024/01/31 03:32:36;;;;;;;7.28;1.88;;;;;;;10.34;60.83;103439.25;4993306;28;98235;-69
2024/01/31 03:35:03;;;;;;;5.82;2.10;;;;;;;10.34;60.56;103438.34;5013115;28;97223;-69
2024/01/31 03:37:30;;;;;;;5.93;1.95;;;;;;;10.33;60.85;103440.16;5004442;28;97181;-69
2024/01/31 03:39:57;;;;;;;6.45;2.00;;;;;;;10.32;60.66;103445.56;5002988;27;97591;-69
2024/01/31 03:42:24;;;;;;;5.18;1.70;;;;;;;10.31;60.76;103435.75;5012126;28;97960;-69
2024/01/31 03:44:50;;;;;;;7.78;2.28;;;;;;;10.28;60.54;103430.47;5009942;28;97509;-69
2024/01/31 03:47:17;;;;;;;7.13;2.13;;;;;;;10.23;60.82;103435.97;5000684;28;97304;-69
2024/01/31 03:49:45;;;;;;;7.07;2.50;;;;;;;10.21;60.75;103434.25;4994408;28;97517;-69
2024/01/31 03:52:12;;;;;;;4.75;2.65;;;;;;;10.18;60.78;103428.03;4997585;28;97581;-69
2024/01/31 03:54:40;;;;;;;4.78;2.10;;;;;;;10.18;60.67;103425.34;4998182;28;97124;-69
2024/01/31 03:57:06;;;;;;;7.18;2.72;;;;;;;10.17;60.59;103428.06;5003913;28;97288;-69
2024/01/31 03:59:33;;;;;;;4.75;2.55;;;;;;;10.14;60.74;103425.47;5000653;28;97697;-69
2024/01/31 04:02:02;;;;;;;10.43;2.45;;;;;;;10.14;60.64;103414.72;5000765;28;100117;-69
2024/01/31 04:04:29;;;;;;;6.07;2.65;;;;;;;10.13;60.64;103413.84;4986429;28;97480;-69
2024/01/31 04:06:56;;;;;;;9.57;2.40;;;;;;;10.11;60.68;103413.00;4988755;28;96807;-69
2024/01/31 04:09:23;;;;;;;9.38;2.30;;;;;;;10.06;60.67;103414.06;4989163;28;97615;-69
2024/01/31 04:11:50;;;;;;;10.75;2.40;;;;;;;10.05;60.98;103418.56;5001169;28;97433;-69
2024/01/31 04:14:16;;;;;;;6.72;2.35;;;;;;;10.08;60.87;103414.91;5005719;27;97426;-69
2024/01/31 04:16:44;;;;;;;6.63;2.08;;;;;;;10.06;60.83;103406.00;5002496;28;97158;-69
2024/01/31 04:19:11;;;;;;;5.75;2.15;;;;;;;10.08;60.93;103404.16;4998854;28;97528;-69
2024/01/31 04:21:37;;;;;;;4.95;1.90;;;;;;;10.10;61.13;103403.19;5000829;28;97636;-69
2024/01/31 04:24:04;;;;;;;5.63;2.17;;;;;;;10.14;60.73;103410.22;4990210;28;97622;-69
2024/01/31 04:26:31;;;;;;;6.25;2.70;;;;;;;10.16;60.75;103410.19;4998841;28;97263;-69
2024/01/31 04:28:58;;;;;;;7.70;2.38;;;;;;;10.16;60.82;103408.38;5005404;28;98422;-69
2024/01/31 04:31:25;;;;;;;6.88;2.72;;;;;;;10.16;60.88;103413.75;5002212;28;97524;-69
2024/01/31 04:33:51;;;;;;;9.70;2.90;;;;;;;10.18;60.87;103411.91;5007140;28;97029;-69
2024/01/31 04:36:18;;;;;;;4.97;2.05;;;;;;;10.19;60.82;103410.97;5002406;28;97224;-69
2024/01/31 04:38:45;;;;;;;4.65;2.65;;;;;;;10.21;61.08;103404.72;5003698;28;97824;-69
2024/01/31 04:41:11;;;;;;;6.78;2.20;;;;;;;10.23;61.06;103397.50;4998694;28;98139;-69
2024/01/31 04:43:40;;;;;;;11.35;3.53;;;;;;;10.24;60.96;103405.50;4996292;28;97128;-69
2024/01/31 04:46:07;;;;;;;8.13;2.40;;;;;;;10.26;61.06;103408.16;4996404;27;97193;-69
2024/01/31 04:48:33;;;;;;;6.00;2.58;;;;;;;10.24;60.76;103405.50;4998073;28;97370;-69
2024/01/31 04:51:02;;;;;;;5.28;2.17;;;;;;;10.19;60.89;103412.78;4997615;28;97562;-69
2024/01/31 04:53:29;;;;;;;5.53;2.50;;;;;;;10.17;60.95;103410.16;5000918;28;97360;-69
2024/01/31 04:55:56;;;;;;;5.15;2.83;;;;;;;10.18;60.89;103414.59;5004644;28;97179;-69
2024/01/31 04:58:23;;;;;;;7.63;3.30;;;;;;;10.19;60.90;103413.66;4998205;28;97463;-69
2024/01/31 05:00:49;;;;;;;7.90;2.78;;;;;;;10.22;60.91;103403.78;4990879;28;97648;-69
2024/01/31 05:03:16;;;;;;;8.95;3.00;;;;;;;10.21;61.06;103394.84;4995490;28;96962;-69
2024/01/31 05:05:43;;;;;;;9.30;3.00;;;;;;;10.22;60.82;103404.69;4994285;28;97069;-69
2024/01/31 05:08:11;;;;;;;8.32;2.67;;;;;;;10.21;61.12;103407.41;4993697;28;97602;-69
2024/01/31 05:10:38;;;;;;;6.65;2.72;;;;;;;10.19;61.04;103402.94;4985754;28;98680;-69
2024/01/31 05:13:04;;;;;;;3.88;2.50;;;;;;;10.21;60.69;103410.97;5003745;28;97007;-69
2024/01/31 05:15:31;;;;;;;8.65;3.33;;;;;;;10.22;60.78;103410.03;4990797;28;96990;-69
2024/01/31 05:17:59;;;;;;;6.00;3.08;;;;;;;10.21;60.81;103410.97;5003043;28;97547;-69
2024/01/31 05:20:27;;;;;;;5.90;2.42;;;;;;;10.20;60.84;103417.25;4986963;28;97826;-69
2024/01/31 05:22:54;;;;;;;6.30;1.98;;;;;;;10.18;60.94;103414.59;4996169;28;97275;-69
2024/01/31 05:25:21;;;;;;;5.22;2.53;;;;;;;10.16;60.89;103421.81;4987559;28;97515;-69
2024/01/31 05:27:50;;;;;;;11.50;2.90;;;;;;;10.14;60.73;103412.91;4997061;28;97647;-69
2024/01/31 05:30:17;;;;;;;7.03;2.65;;;;;;;10.13;60.60;103419.22;4995245;28;97674;-70
2024/01/31 05:32:46;;;;;;;4.90;2.70;;;;;;;10.14;61.10;103417.41;5000278;28;97742;-69
2024/01/31 05:35:13;;;;;;;8.48;3.03;;;;;;;10.16;60.85;103413.75;4989489;28;97453;-69
2024/01/31 05:37:40;;;;;;;4.85;2.78;;;;;;;10.16;60.86;103411.06;4987357;28;99837;-69
2024/01/31 05:40:08;;;;;;;11.07;3.20;;;;;;;10.18;60.71;103411.03;4991375;28;97613;-69
2024/01/31 05:42:34;;;;;;;4.18;2.45;;;;;;;10.19;60.84;103410.09;5002988;28;96980;-69
2024/01/31 05:45:01;;;;;;;5.60;2.33;;;;;;;10.20;60.59;103409.22;5001802;28;96808;-69
2024/01/31 05:47:28;;;;;;;6.05;2.85;;;;;;;10.22;60.81;103409.16;4999084;28;97680;-69
2024/01/31 05:49:54;;;;;;;5.70;2.67;;;;;;;10.21;60.60;103399.34;4987744;28;97630;-69
2024/01/31 05:52:21;;;;;;;5.22;3.03;;;;;;;10.20;60.66;103409.22;4993777;27;97073;-69
2024/01/31 05:54:48;;;;;;;5.25;3.13;;;;;;;10.17;60.58;103409.25;4993558;28;97377;-69
2024/01/31 05:57:14;;;;;;;5.97;3.00;;;;;;;10.19;60.46;103404.72;5003871;28;97569;-69
2024/01/31 05:59:41;;;;;;;7.35;3.00;;;;;;;10.19;60.64;103407.41;4995256;28;98132;-69
2024/01/31 06:02:09;;;;;;;6.88;3.03;;;;;;;10.19;60.64;103410.97;4994695;28;97163;-69
2024/01/31 06:04:35;;;;;;;4.65;3.05;;;;;;;10.19;60.34;103408.28;4993290;28;97082;-69
2024/01/31 06:07:02;;;;;;;5.40;2.90;;;;;;;10.18;60.61;103393.09;4998563;28;97370;-69
2024/01/31 06:09:30;;;;;;;6.95;2.92;;;;;;;10.19;60.36;103391.31;4993953;28;97480;-69
2024/01/31 06:11:56;;;;;;;7.97;3.42;;;;;;;10.19;60.54;103392.19;4997493;28;97181;-69
2024/01/31 06:14:23;;;;;;;5.10;3.15;;;;;;;10.19;60.44;103384.13;4995404;28;97374;-69
2024/01/31 06:16:50;;;;;;;4.85;3.35;;;;;;;10.21;60.44;103372.50;4981402;28;97762;-69
2024/01/31 06:19:16;;;;;;;6.93;3.60;;;;;;;10.21;60.50;103373.38;4994601;28;98167;-69
2024/01/31 06:21:44;;;;;;;6.45;3.60;;;;;;;10.19;60.17;103369.81;4999477;28;97467;-69
2024/01/31 06:24:11;;;;;;;5.55;3.67;;;;;;;10.19;60.26;103369.81;5002488;28;96871;-69
2024/01/31 06:26:40;;;;;;;6.72;3.90;;;;;;;10.19;60.47;103364.44;4994993;28;97802;-69
2024/01/31 06:29:07;;;;;;;7.10;3.97;;;;;;;10.21;60.35;103356.38;4988635;28;97702;-69
2024/01/31 06:31:40;;;;;;;6.00;3.78;;;;;;;10.21;60.51;103351.00;5005981;28;98029;-69
2024/01/31 06:34:07;;;;;;;7.07;3.67;;;;;;;10.22;60.42;103339.34;4993837;28;96972;-69
2024/01/31 06:36:34;;;;;;;5.15;3.63;;;;;;;10.21;60.09;103338.47;5001458;28;97685;-69
2024/01/31 06:39:01;;;;;;;6.40;3.85;;;;;;;10.19;60.40;103340.28;4985271;28;97571;-69
2024/01/31 06:41:28;;;;;;;8.82;4.03;;;;;;;10.19;60.36;103338.47;4991644;28;98404;-69
2024/01/31 06:43:55;;;;;;;9.57;4.20;;;;;;;10.20;60.29;103344.75;4983962;28;97258;-69
2024/01/31 06:46:22;;;;;;;6.45;4.20;;;;;;;10.21;60.15;103351.00;4990868;28;97630;-69
2024/01/31 06:48:49;;;;;;;6.97;3.72;;;;;;;10.21;60.07;103356.38;4995173;28;100362;-69
2024/01/31 06:51:16;;;;;;;6.88;4.10;;;;;;;10.21;60.45;103368.00;4997014;28;97727;-69
2024/01/31 06:53:44;;;;;;;6.97;4.05;;;;;;;10.21;60.25;103380.56;4999645;28;97216;-69
2024/01/31 06:56:16;;;;;;;6.07;4.40;;;;;;;10.19;60.25;103394.88;4991299;28;97921;-69
2024/01/31 06:58:45;;;;;;;6.63;3.97;;;;;;;10.20;60.33;103411.91;5004957;28;97923;-69
2024/01/31 07:01:29;;;;;;;4.70;3.70;;;;;;;10.17;60.39;103428.06;5008303;28;97115;-69
2024/01/31 07:03:57;;;;;;;8.40;4.30;;;;;;;10.18;59.81;103436.06;5006415;28;97260;-69
2024/01/31 07:06:24;;;;;;;5.53;4.13;;;;;;;10.17;60.04;103439.69;5003233;28;97410;-69
2024/01/31 07:08:51;;;;;;;8.57;4.78;;;;;;;10.15;60.39;103446.91;5006226;28;98125;-69
2024/01/31 07:11:17;;;;;;;7.32;4.43;;;;;;;10.15;60.05;103443.34;4991389;28;97219;-69
2024/01/31 07:13:44;;;;;;;8.25;4.07;;;;;;;10.16;60.13;103448.66;4994926;28;97720;-69
2024/01/31 07:16:11;;;;;;;6.28;4.28;;;;;;;10.15;60.12;103457.66;5003183;28;97610;-69
2024/01/31 07:18:42;;;;;;;8.80;4.90;;;;;;;10.15;60.16;103452.28;5009811;28;98223;-69
2024/01/31 07:21:11;;;;;;;8.98;5.00;;;;;;;10.15;60.14;103454.97;4996487;28;97326;-69
2024/01/31 07:23:40;;;;;;;8.00;5.38;;;;;;;10.15;60.49;103460.34;5008272;28;96863;-69
2024/01/31 07:26:07;;;;;;;9.05;5.35;;;;;;;10.15;60.14;103467.50;4984975;28;97854;-69
2024/01/31 07:28:36;;;;;;;10.85;5.15;;;;;;;10.14;60.12;103474.69;4991363;28;98112;-69
2024/01/31 07:31:05;;;;;;;11.15;6.07;;;;;;;10.15;60.18;103471.06;4984410;28;97141;-69
2024/01/31 07:33:34;;;;;;;10.60;5.88;;;;;;;10.17;60.04;103479.97;4995315;28;98804;-69
2024/01/31 07:36:02;;;;;;;10.98;6.03;;;;;;;10.18;60.36;103479.03;4993905;28;97595;-69
2024/01/31 07:38:29;;;;;;;9.13;6.10;;;;;;;10.19;60.08;103478.13;4999618;28;97458;-69
2024/01/31 07:40:56;;;;;;;9.57;6.38;;;;;;;10.18;60.36;103484.41;4978815;28;97776;-69
2024/01/31 07:43:23;;;;;;;8.02;6.35;;;;;;;10.18;60.27;103484.41;4995574;28;97671;-69
2024/01/31 07:45:53;;;;;;;11.23;7.45;;;;;;;10.18;60.07;103476.34;5026641;27;100235;-68
2024/01/31 07:48:19;;;;;;;10.73;7.75;;;;;;;10.19;60.23;103479.91;4994052;28;97577;-69
2024/01/31 07:50:46;;;;;;;10.70;7.28;;;;;;;10.19;60.36;103472.75;5003178;28;97156;-69
2024/01/31 07:53:12;;;;;;;9.80;7.50;;;;;;;10.22;60.16;103479.00;4992410;28;96903;-69
2024/01/31 07:55:39;;;;;;;11.00;7.20;;;;;;;10.23;60.38;103478.06;5005098;28;97665;-70
2024/01/31 07:58:06;;;;;;;10.10;7.78;;;;;;;10.24;60.02;103480.72;4993718;28;98510;-69
2024/01/31 08:00:32;;;;;;;10.95;6.88;;;;;;;10.25;60.24;103479.78;4999753;28;96925;-69
2024/01/31 08:03:00;;;;;;;11.40;7.80;;;;;;;10.27;60.10;103479.75;4988693;28;96981;-69
2024/01/31 08:05:26;;;;;;;14.32;7.78;;;;;;;10.28;60.37;103468.97;4990405;28;98835;-69
2024/01/31 08:07:53;;;;;;;11.80;8.15;;;;;;;10.29;60.17;103467.16;5007293;28;97841;-69
2024/01/31 08:10:20;;;;;;;10.98;8.48;;;;;;;10.30;59.99;103458.19;5009849;28;97004;-69
2024/01/31 08:12:48;;;;;;;13.73;7.60;;;;;;;10.32;59.98;103464.38;4987342;28;97096;-70
2024/01/31 08:15:15;;;;;;;10.95;7.95;;;;;;;10.35;60.01;103464.28;4992992;28;97585;-69
2024/01/31 08:17:42;;;;;;;13.50;8.23;;;;;;;10.36;60.09;103455.31;4999065;28;97471;-70
2024/01/31 08:20:10;;;;;;;10.95;8.70;;;;;;;10.38;59.99;103461.53;5003395;28;97289;-69
2024/01/31 08:22:37;;;;;;;11.90;8.82;;;;;;;10.36;60.09;103458.00;5001389;28;96922;-69
2024/01/31 08:25:06;;;;;;;13.27;8.68;;;;;;;10.39;59.93;103458.78;5002930;28;99692;-69
2024/01/31 08:27:34;;;;;;;10.13;8.27;;;;;;;10.41;60.10;103456.09;5001264;28;98399;-70
2024/01/31 08:30:05;;;;;;;12.23;8.38;;;;;;;10.42;59.88;103455.16;4998512;28;97466;-69
2024/01/31 08:32:34;;;;;;;10.57;8.65;;;;;;;10.43;60.02;103454.25;4992574;28;97418;-69
2024/01/31 08:35:02;;;;;;;14.38;9.20;;;;;;;10.45;59.79;103444.34;4986791;28;97970;-70
2024/01/31 08:37:29;;;;;;;13.77;9.93;;;;;;;10.46;59.99;103438.03;4982489;28;97995;-70
2024/01/31 08:39:56;;;;;;;15.13;9.45;;;;;;;10.46;59.96;103430.84;4987320;28;96982;-70
2024/01/31 08:42:28;;;;;;;13.70;8.30;;;;;;;10.48;59.77;103422.75;4999651;28;97160;-70
2024/01/31 08:44:56;;;;;;;13.35;9.20;;;;;;;10.48;59.95;103418.25;4986000;28;97883;-70
2024/01/31 08:47:22;;;;;;;13.65;9.07;;;;;;;10.51;59.70;103419.97;4996795;28;97615;-70
2024/01/31 08:49:49;;;;;;;15.52;8.77;;;;;;;10.53;60.06;103420.81;4983245;28;97861;-70
2024/01/31 08:52:16;;;;;;;15.07;8.98;;;;;;;10.56;59.53;103419.84;4998587;28;96931;-69
2024/01/31 08:54:44;;;;;;;9.88;8.18;;;;;;;10.57;59.76;103413.53;4997367;28;97723;-70
2024/01/31 08:57:11;;;;;;;11.68;8.10;;;;;;;10.58;59.95;103410.78;4992411;28;97406;-70
2024/01/31 08:59:38;;;;;;;11.82;9.02;;;;;;;10.61;59.81;103407.13;4985047;28;97667;-70
2024/01/31 09:02:05;;;;;;;15.57;10.77;;;;;;;10.62;59.56;103399.03;5008011;28;96818;-70
2024/01/31 09:04:31;;;;;;;12.80;10.48;;;;;;;10.64;59.53;103399.88;5004252;28;97632;-69
2024/01/31 09:06:58;;;;;;;11.90;8.75;;;;;;;10.64;59.47;103394.47;5006390;28;98195;-69
2024/01/31 09:09:25;;;;;;;14.70;9.75;;;;;;;10.65;59.60;103393.56;4999510;28;96806;-70
2024/01/31 09:11:51;;;;;;;15.40;11.02;;;;;;;10.66;59.45;103395.31;5001745;28;96943;-69
2024/01/31 09:14:18;;;;;;;14.38;10.73;;;;;;;10.64;59.64;103389.13;5008008;28;97758;-70
2024/01/31 09:16:45;;;;;;;15.02;10.63;;;;;;;10.64;59.51;103386.44;4987058;28;97561;-69
2024/01/31 09:19:12;;;;;;;16.88;11.07;;;;;;;10.65;59.57;103377.44;5000044;28;97065;-70
2024/01/31 09:21:39;;;;;;;13.82;10.10;;;;;;;10.68;59.74;103381.84;5002341;28;98514;-69
2024/01/31 09:24:06;;;;;;;13.77;9.68;;;;;;;10.70;59.76;103375.47;4994233;28;97552;-70
2024/01/31 09:26:32;;;;;;;13.32;9.50;;;;;;;10.71;59.46;103376.38;5003526;28;97639;-70
2024/01/31 09:28:59;;;;;;;14.40;9.32;;;;;;;10.72;59.87;103383.50;5005025;28;97251;-70
2024/01/31 09:31:26;;;;;;;11.70;8.82;;;;;;;10.73;59.59;103375.38;5006007;28;97472;-70
2024/01/31 09:33:54;;;;;;;11.25;8.35;;;;;;;10.74;59.52;103374.47;5000331;28;97508;-70
2024/01/31 09:36:22;;;;;;;10.98;8.57;;;;;;;10.74;59.24;103371.78;4997678;28;97489;-70
2024/01/31 09:38:49;;;;;;;11.13;7.80;;;;;;;10.74;59.37;103363.72;4995922;28;97075;-70
2024/01/31 09:41:16;;;;;;;11.38;8.02;;;;;;;10.72;59.52;103362.88;4990811;28;97522;-70
2024/01/31 09:43:44;;;;;;;11.35;8.65;;;;;;;10.74;59.29;103368.19;4990274;28;98741;-70
2024/01/31 09:46:12;;;;;;;11.23;8.63;;;;;;;10.75;59.63;103373.53;4993268;28;97556;-70
2024/01/31 09:48:40;;;;;;;14.45;8.50;;;;;;;10.78;59.39;103376.13;5007261;28;98199;-70
2024/01/31 09:51:07;;;;;;;13.18;9.63;;;;;;;10.80;59.48;103378.75;5004364;27;96860;-70
2024/01/31 09:53:36;;;;;;;12.73;9.77;;;;;;;10.83;59.47;103379.53;5007150;28;100404;-70
2024/01/31 09:56:05;;;;;;;12.85;9.20;;;;;;;10.88;59.62;103382.09;4994831;28;97754;-68
2024/01/31 09:58:32;;;;;;;13.95;9.60;;;;;;;10.90;59.25;103374.84;4984473;28;97214;-68
2024/01/31 10:01:00;;;;;;;14.38;10.50;;;;;;;10.93;59.48;103374.75;4987893;28;99402;-68
2024/01/31 10:03:27;;;;;;;14.95;10.48;;;;;;;10.95;59.54;103375.56;4992625;28;97190;-68
2024/01/31 10:05:54;;;;;;;15.98;11.20;;;;;;;10.97;59.60;103381.78;4998382;28;97764;-68
2024/01/31 10:08:20;;;;;;;16.00;10.07;;;;;;;10.98;59.55;103378.16;4992270;28;97161;-68
2024/01/31 10:10:48;;;;;;;13.88;10.80;;;;;;;11.02;59.75;103373.56;4996539;28;97075;-68
2024/01/31 10:13:16;;;;;;;17.10;10.55;;;;;;;11.02;59.67;103384.31;4999749;28;97397;-68
2024/01/31 10:15:44;;;;;;;17.20;11.07;;;;;;;11.04;59.48;103385.16;5004642;28;98438;-68
2024/01/31 10:18:11;;;;;;;17.13;11.80;;;;;;;11.07;59.45;103382.38;4997262;27;96917;-69
2024/01/31 10:20:38;;;;;;;17.85;12.82;;;;;;;11.08;59.58;103373.38;5000384;28;97410;-69
2024/01/31 10:23:05;;;;;;;18.23;12.63;;;;;;;11.08;59.57;103385.00;4999467;28;98228;-69
2024/01/31 10:25:32;;;;;;;20.77;13.40;;;;;;;11.09;59.58;103385.88;4988218;28;97660;-69
2024/01/31 10:27:59;;;;;;;17.98;12.68;;;;;;;11.09;59.54;103376.00;4990807;28;97045;-69
2024/01/31 10:30:26;;;;;;;19.70;13.50;;;;;;;11.10;59.50;103393.03;4987958;28;100183;-69
2024/01/31 10:32:54;;;;;;;22.40;14.98;;;;;;;11.11;59.77;103389.41;5002241;28;100106;-69
2024/01/31 10:35:21;;;;;;;22.77;15.43;;;;;;;11.11;59.94;103390.28;4994795;28;97598;-69
2024/01/31 10:38:13;;;;;;;22.40;15.95;;;;;;;11.13;59.60;103383.03;4996083;28;97262;-69
2024/01/31 10:40:42;;;;;;;23.73;16.35;;;;;;;11.15;59.88;103385.72;5000209;27;97114;-69
2024/01/31 10:43:10;;;;;;;23.50;17.13;;;;;;;11.16;59.60;103390.16;5007197;28;97560;-69
2024/01/31 10:45:38;;;;;;;27.23;17.67;;;;;;;11.18;59.67;103377.53;4996765;27;97543;-69
2024/01/31 10:48:05;;;;;;;27.98;18.17;;;;;;;11.18;59.90;103366.78;4997830;28;97374;-68
2024/01/31 10:50:33;;;;;;;28.17;17.85;;;;;;;11.19;59.71;103365.84;5005428;28;97230;-69
2024/01/31 10:53:04;;;;;;;22.63;17.55;;;;;;;11.19;59.99;103360.47;5001267;28;97649;-69
2024/01/31 10:55:32;;;;;;;25.63;18.38;;;;;;;11.21;59.85;103352.34;5002989;28;97790;-69
2024/01/31 10:58:01;;;;;;;27.75;18.80;;;;;;;11.22;60.13;103348.72;4999998;28;97240;-68
2024/01/31 11:00:32;;;;;;;27.92;19.40;;;;;;;11.22;60.09;103341.53;4994855;27;97454;-69
2024/01/31 11:03:00;;;;;;;27.75;20.13;;;;;;;11.25;60.05;103337.88;4991614;28;97454;-69
2024/01/31 11:05:29;;;;;;;30.45;19.50;;;;;;;11.25;59.95;103336.06;4994481;28;97571;-69
2024/01/31 11:07:56;;;;;;;29.30;20.90;;;;;;;11.27;60.04;103322.56;4987306;28;97434;-69
2024/01/31 11:10:23;;;;;;;32.78;21.58;;;;;;;11.28;60.07;103321.63;4997259;28;97242;-69
2024/01/31 11:13:04;;;;;;;32.90;22.27;;;;;;;11.29;60.46;103315.31;4995614;28;98429;-69
2024/01/31 11:15:33;;;;;;;33.95;21.85;;;;;;;11.31;60.03;103313.44;4999714;28;98451;-69
2024/01/31 11:18:10;;;;;;;32.80;21.52;;;;;;;11.30;60.39;103312.56;4983968;28;97071;-69
2024/01/31 11:20:39;;;;;;;34.95;21.38;;;;;;;11.30;60.28;103307.19;5003538;28;97079;-69
2024/01/31 11:23:06;;;;;;;31.73;20.88;;;;;;;11.31;60.20;103292.81;5001051;28;97712;-69